Time;durP1;ratioP1;P1;durP2;ratioP2;P2;SDS_P1;SDS_P2;PMS_P1;PMS_P2;Temp;Humidity;BMP_temperature;BMP_pressure;BME280_temperature;BME280_humidity;BME280_pressure;Samples;Min_cycle;Max_cycle;Signal;HPM_P1;HPM_P2
2021/04/12 00:00:21;;;;;;;2.88;1.27;;;4.50;71.20;;;;;;4936135;29;20452;-70
2021/04/12 00:02:54;;;;;;;3.63;1.35;;;4.50;71.30;;;;;;4930186;29;20044;-70
2021/04/12 00:05:40;;;;;;;2.22;1.45;;;4.50;71.40;;;;;;4936075;29;20479;-70
2021/04/12 00:08:26;;;;;;;4.15;1.10;;;4.50;71.60;;;;;;4935825;29;20059;-70
2021/04/12 00:11:12;;;;;;;3.53;1.42;;;4.50;71.60;;;;;;4935878;29;20043;-70
2021/04/12 00:13:54;;;;;;;2.60;1.50;;;4.50;71.60;;;;;;4935923;29;20031;-70
2021/04/12 00:16:31;;;;;;;3.95;1.45;;;4.50;71.60;;;;;;4935923;29;20640;-70
2021/04/12 00:19:05;;;;;;;5.82;1.83;;;4.60;71.70;;;;;;4935788;29;20071;-71
2021/04/12 00:21:48;;;;;;;3.25;1.48;;;4.60;71.80;;;;;;4935893;29;20044;-70
2021/04/12 00:24:40;;;;;;;3.67;1.50;;;4.60;71.80;;;;;;4919649;29;20538;-70
2021/04/12 00:27:16;;;;;;;2.47;1.50;;;4.60;71.80;;;;;;4926054;28;20083;-70
2021/04/12 00:29:41;;;;;;;3.25;1.55;;;4.60;71.90;;;;;;5034795;28;20033;-70
2021/04/12 00:32:19;;;;;;;2.75;1.63;;;4.60;71.80;;;;;;5034870;28;20056;-70
2021/04/12 00:35:01;;;;;;;3.50;1.45;;;4.60;71.90;;;;;;5033774;28;20021;-70
2021/04/12 00:37:44;;;;;;;2.60;1.67;;;4.60;71.90;;;;;;5033658;28;20036;-70
2021/04/12 00:40:47;;;;;;;3.55;1.48;;;4.70;72.00;;;;;;5033427;28;20038;-70
2021/04/12 00:43:34;;;;;;;1.67;1.42;;;4.70;72.00;;;;;;5033646;28;20037;-70
2021/04/12 00:46:19;;;;;;;1.52;1.20;;;4.70;72.10;;;;;;5034591;28;20036;-70
2021/04/12 00:49:07;;;;;;;1.85;1.40;;;4.70;72.10;;;;;;5034589;28;20034;-70
2021/04/12 00:52:08;;;;;;;2.45;1.58;;;4.70;72.10;;;;;;5033167;28;20033;-70
2021/04/12 00:54:51;;;;;;;2.08;1.55;;;4.70;72.20;;;;;;5034494;28;20018;-70
2021/04/12 00:57:23;;;;;;;2.20;1.27;;;4.70;72.30;;;;;;5034425;28;20025;-70
2021/04/12 01:00:09;;;;;;;3.35;1.50;;;4.60;72.30;;;;;;5034546;28;20167;-70
2021/04/12 01:02:42;;;;;;;2.13;1.58;;;4.60;72.40;;;;;;5034321;28;20060;-70
2021/04/12 01:05:25;;;;;;;5.00;1.70;;;4.60;72.40;;;;;;5034285;28;20025;-70
2021/04/12 01:08:27;;;;;;;3.58;1.52;;;4.60;72.50;;;;;;5034166;28;20034;-70
2021/04/12 01:11:08;;;;;;;2.88;1.55;;;4.50;72.70;;;;;;5034232;28;20029;-70
2021/04/12 01:13:46;;;;;;;3.22;1.45;;;4.50;72.70;;;;;;5034249;28;20025;-69
2021/04/12 01:16:27;;;;;;;3.42;1.50;;;4.50;72.80;;;;;;5033119;28;20080;-70
2021/04/12 01:19:30;;;;;;;3.60;1.60;;;4.50;72.90;;;;;;5034650;28;20022;-70
2021/04/12 01:22:26;;;;;;;3.72;1.80;;;4.50;73.00;;;;;;5032947;28;20427;-70
2021/04/12 01:25:16;;;;;;;2.63;1.70;;;4.50;73.10;;;;;;5032310;28;20040;-70
2021/04/12 01:27:51;;;;;;;3.92;1.80;;;4.40;73.10;;;;;;5033838;28;20029;-70
2021/04/12 01:30:25;;;;;;;4.28;1.67;;;4.40;73.20;;;;;;5032272;28;20083;-70
2021/04/12 01:33:18;;;;;;;1.77;1.67;;;4.40;73.30;;;;;;5034144;28;20465;-70
2021/04/12 01:36:14;;;;;;;3.85;1.85;;;4.40;73.30;;;;;;5032393;28;20392;-70
2021/04/12 01:39:06;;;;;;;3.13;1.63;;;4.40;73.40;;;;;;5032413;28;20148;-70
2021/04/12 01:41:46;;;;;;;3.63;1.88;;;4.40;73.40;;;;;;5032146;28;20037;-70
2021/04/12 01:44:25;;;;;;;3.55;1.65;;;4.40;73.40;;;;;;5033526;28;20030;-70
2021/04/12 01:47:01;;;;;;;2.28;1.60;;;4.40;74.00;;;;;;5032225;28;20112;-70
2021/04/12 01:49:48;;;;;;;3.65;1.77;;;4.40;73.40;;;;;;5032122;28;20155;-70
2021/04/12 01:52:37;;;;;;;2.55;1.60;;;4.40;73.40;;;;;;5032072;28;20392;-70
2021/04/12 01:55:24;;;;;;;3.50;1.85;;;4.40;73.40;;;;;;5031451;28;20053;-70
2021/04/12 01:58:34;;;;;;;4.07;1.70;;;4.40;73.40;;;;;;5033169;28;20100;-70
2021/04/12 02:01:14;;;;;;;2.65;1.63;;;4.40;73.50;;;;;;5031892;28;20195;-70
2021/04/12 02:03:54;;;;;;;2.15;1.73;;;4.40;73.50;;;;;;5033470;28;20053;-70
2021/04/12 02:06:57;;;;;;;3.58;1.88;;;4.30;73.50;;;;;;5031744;28;20025;-70
2021/04/12 02:09:31;;;;;;;3.80;2.25;;;4.20;73.70;;;;;;5033010;28;20029;-70
2021/04/12 02:12:49;;;;;;;5.93;2.10;;;4.20;73.80;;;;;;5033301;28;20067;-70
2021/04/12 02:15:37;;;;;;;5.28;1.67;;;4.20;73.90;;;;;;5026427;28;20334;-70
2021/04/12 02:18:39;;;;;;;3.85;1.70;;;4.20;74.00;;;;;;5033319;28;20112;-70
2021/04/12 02:21:48;;;;;;;2.95;1.90;;;4.10;74.00;;;;;;5031700;28;20076;-70
2021/04/12 02:24:29;;;;;;;3.13;1.90;;;4.10;74.10;;;;;;4995858;28;20034;-70
2021/04/12 02:27:05;;;;;;;3.95;2.10;;;4.10;74.20;;;;;;5031588;28;20033;-70
2021/04/12 02:29:55;;;;;;;5.25;2.30;;;4.10;74.40;;;;;;5032942;28;20043;-70
2021/04/12 02:32:39;;;;;;;3.28;1.92;;;4.10;74.50;;;;;;5031447;28;20112;-69
2021/04/12 02:35:22;;;;;;;4.68;2.70;;;4.00;74.50;;;;;;5031361;28;20030;-70
2021/04/12 02:38:22;;;;;;;4.53;2.28;;;4.00;74.50;;;;;;5031433;28;20013;-71
2021/04/12 02:41:12;;;;;;;3.10;1.90;;;4.00;74.50;;;;;;5031385;28;20108;-70
2021/04/12 02:44:03;;;;;;;1.95;1.73;;;4.00;75.20;;;;;;5031446;28;20128;-70
2021/04/12 02:46:53;;;;;;;2.45;2.03;;;4.00;74.60;;;;;;5032905;28;20044;-70
2021/04/12 02:49:33;;;;;;;2.20;1.73;;;4.00;74.60;;;;;;5031323;28;20021;-70
2021/04/12 02:52:08;;;;;;;3.33;2.17;;;4.00;74.60;;;;;;5032631;28;20022;-70
2021/04/12 02:54:56;;;;;;;2.75;1.80;;;4.00;74.60;;;;;;5031328;28;20021;-70
2021/04/12 02:57:46;;;;;;;3.88;1.88;;;3.90;74.70;;;;;;5032460;28;20032;-70
2021/04/12 03:00:31;;;;;;;2.95;1.92;;;3.90;74.80;;;;;;5032585;28;20469;-71
2021/04/12 03:03:15;;;;;;;2.75;1.80;;;3.90;74.80;;;;;;5032769;28;20026;-70
2021/04/12 03:05:43;;;;;;;4.30;2.38;;;3.90;74.80;;;;;;5031067;28;20025;-70
2021/04/12 03:08:22;;;;;;;2.20;1.80;;;3.90;74.80;;;;;;5034057;28;20017;-70
2021/04/12 03:11:20;;;;;;;4.22;2.10;;;3.90;74.80;;;;;;5036338;28;20100;-70
2021/04/12 03:14:13;;;;;;;5.53;2.10;;;3.90;74.90;;;;;;5036468;28;20477;-70
2021/04/12 03:16:42;;;;;;;4.00;2.20;;;3.90;74.80;;;;;;5036448;28;20127;-70
2021/04/12 03:19:29;;;;;;;3.30;2.20;;;3.90;74.80;;;;;;5034944;28;20036;-70
2021/04/12 03:22:27;;;;;;;4.30;1.95;;;3.90;74.90;;;;;;5034766;28;20056;-70
2021/04/12 03:25:30;;;;;;;2.50;2.00;;;4.00;75.00;;;;;;5036228;28;20022;-70
2021/04/12 03:28:26;;;;;;;3.97;2.00;;;4.00;75.00;;;;;;5035038;28;20040;-70
2021/04/12 03:31:04;;;;;;;2.92;2.00;;;4.00;74.90;;;;;;5034676;28;20038;-70
2021/04/12 03:34:06;;;;;;;2.33;1.80;;;4.00;74.90;;;;;;5034657;28;20056;-70
2021/04/12 03:37:05;;;;;;;2.78;2.03;;;4.00;75.00;;;;;;5034461;28;20048;-70
2021/04/12 03:39:50;;;;;;;2.85;1.75;;;4.00;75.00;;;;;;5035817;28;20393;-70
2021/04/12 03:42:41;;;;;;;2.65;1.98;;;4.00;75.00;;;;;;5035992;28;20087;-70
2021/04/12 03:45:15;;;;;;;2.60;1.80;;;4.00;75.10;;;;;;5036031;28;20029;-70
2021/04/12 03:47:44;;;;;;;2.42;1.90;;;4.00;75.00;;;;;;5034340;28;20037;-70
2021/04/12 03:50:36;;;;;;;3.10;1.95;;;4.00;75.00;;;;;;5034195;28;20418;-70
2021/04/12 03:53:08;;;;;;;3.47;2.42;;;4.10;75.00;;;;;;5034263;28;20035;-69
2021/04/12 03:56:11;;;;;;;4.00;1.77;;;4.10;75.00;;;;;;5035931;28;20392;-70
2021/04/12 03:59:00;;;;;;;3.10;1.73;;;4.10;75.20;;;;;;5034398;28;20029;-70
2021/04/12 04:01:50;;;;;;;2.67;1.80;;;4.00;75.20;;;;;;5035715;28;20461;-70
2021/04/12 04:04:40;;;;;;;2.63;1.73;;;4.00;75.20;;;;;;5034409;28;20044;-70
2021/04/12 04:07:33;;;;;;;2.83;1.70;;;4.00;75.30;;;;;;5034339;28;20030;-70
2021/04/12 04:10:17;;;;;;;1.52;1.42;;;4.00;75.40;;;;;;5035900;28;20030;-70
2021/04/12 04:13:01;;;;;;;;;;;4.00;75.40;;;;;;5036205;28;20017;-70
2021/04/12 04:16:13;;;;;;;3.50;1.90;;;4.00;75.30;;;;;;5033979;28;19958;-70
2021/04/12 04:18:54;;;;;;;3.80;2.30;;;4.00;75.30;;;;;;5034800;28;20025;-70
2021/04/12 04:21:27;;;;;;;3.70;2.17;;;4.00;75.20;;;;;;5033743;28;20025;-70
2021/04/12 04:24:03;;;;;;;2.42;1.83;;;4.00;75.20;;;;;;5035044;28;20026;-70
2021/04/12 04:27:04;;;;;;;2.70;1.80;;;4.10;75.40;;;;;;5032766;28;20073;-70
2021/04/12 04:29:32;;;;;;;3.30;1.70;;;4.00;75.30;;;;;;5033745;28;20084;-71
2021/04/12 04:32:04;;;;;;;2.05;1.83;;;4.10;75.30;;;;;;5032297;28;20131;-70
2021/04/12 04:34:34;;;;;;;2.42;1.90;;;4.10;75.30;;;;;;5032603;28;20410;-70
2021/04/12 04:37:21;;;;;;;4.85;3.22;;;4.10;75.40;;;;;;5034134;28;20029;-70
2021/04/12 04:40:15;;;;;;;4.38;3.08;;;4.10;75.50;;;;;;5034300;28;20100;-70
2021/04/12 04:43:02;;;;;;;3.70;2.55;;;4.10;75.40;;;;;;4993646;28;20038;-70
2021/04/12 04:45:51;;;;;;;4.32;2.53;;;4.10;75.50;;;;;;5033757;28;20380;-69
2021/04/12 04:48:34;;;;;;;3.80;2.33;;;4.10;75.60;;;;;;5033705;28;20030;-70
2021/04/12 04:51:25;;;;;;;3.35;2.13;;;4.10;75.60;;;;;;5032315;28;20485;-70
2021/04/12 04:54:28;;;;;;;3.88;2.45;;;4.00;75.60;;;;;;5033673;28;20079;-70
2021/04/12 04:57:19;;;;;;;4.05;2.67;;;4.00;76.00;;;;;;5033619;28;20072;-70
2021/04/12 05:00:14;;;;;;;5.28;2.80;;;3.90;76.10;;;;;;5031795;28;20045;-70
2021/04/12 05:03:00;;;;;;;6.75;2.90;;;3.90;76.20;;;;;;5016078;28;20124;-70
2021/04/12 05:05:54;;;;;;;5.18;3.15;;;3.90;76.40;;;;;;5033509;28;20048;-70
2021/04/12 05:08:27;;;;;;;6.75;2.42;;;3.90;76.40;;;;;;5032999;28;20481;-70
2021/04/12 05:11:14;;;;;;;3.20;2.63;;;3.90;76.40;;;;;;5031765;28;20531;-70
2021/04/12 05:13:51;;;;;;;3.83;2.58;;;3.90;76.40;;;;;;5031640;28;20033;-70
2021/04/12 05:16:35;;;;;;;5.13;2.53;;;3.90;76.40;;;;;;5033192;28;20029;-70
2021/04/12 05:19:19;;;;;;;5.90;2.70;;;3.90;76.50;;;;;;5031409;28;20021;-70
2021/04/12 05:21:58;;;;;;;4.75;2.70;;;4.00;76.50;;;;;;5031608;28;20508;-70
2021/04/12 05:27:37;;;;;;;4.40;2.58;;;4.00;76.60;;;;;;5090272;28;21001;-68
2021/04/12 05:30:38;;;;;;;3.13;2.80;;;4.00;76.70;;;;;;5090095;28;20025;-69
2021/04/12 05:33:47;;;;;;;4.78;2.50;;;3.90;76.70;;;;;;5088571;28;20472;-69
2021/04/12 05:36:25;;;;;;;3.83;2.67;;;3.90;76.80;;;;;;5088709;28;20043;-68
2021/04/12 05:39:20;;;;;;;4.30;2.60;;;4.00;76.80;;;;;;5089767;28;20032;-69
2021/04/12 05:42:10;;;;;;;4.63;2.67;;;4.00;76.70;;;;;;5089954;28;20068;-69
2021/04/12 05:44:51;;;;;;;5.57;2.85;;;4.00;76.70;;;;;;5089920;28;20441;-68
2021/04/12 05:47:45;;;;;;;5.38;2.80;;;4.00;76.70;;;;;;5089916;28;20462;-70
2021/04/12 05:50:38;;;;;;;5.70;2.40;;;4.00;76.70;;;;;;5088858;28;20115;-70
2021/04/12 05:53:11;;;;;;;2.75;2.22;;;4.10;76.70;;;;;;5088668;28;20491;-70
2021/04/12 05:56:11;;;;;;;2.97;1.90;;;4.10;76.50;;;;;;5090054;28;20032;-70
2021/04/12 05:59:10;;;;;;;2.83;2.13;;;4.20;76.60;;;;;;5088810;28;20055;-70
2021/04/12 06:02:05;;;;;;;2.25;1.90;;;4.30;76.50;;;;;;5088850;28;20467;-70
2021/04/12 06:05:01;;;;;;;3.60;2.08;;;4.40;76.40;;;;;;5089874;28;20119;-70
2021/04/12 06:07:51;;;;;;;4.53;2.00;;;4.40;76.30;;;;;;5082027;28;20055;-69
2021/04/12 06:10:30;;;;;;;2.13;1.70;;;4.50;76.40;;;;;;5089637;28;20035;-70
2021/04/12 06:13:11;;;;;;;4.65;2.00;;;4.50;76.30;;;;;;5088194;28;20068;-69
2021/04/12 06:16:10;;;;;;;1.85;1.70;;;4.50;76.30;;;;;;5088354;28;20036;-69
2021/04/12 06:19:16;;;;;;;2.88;2.00;;;4.50;76.30;;;;;;5089477;28;20032;-70
2021/04/12 06:22:16;;;;;;;3.78;2.20;;;4.60;76.30;;;;;;5089522;28;20025;-71
2021/04/12 06:24:53;;;;;;;5.30;2.17;;;4.70;76.20;;;;;;5088935;28;20476;-71
2021/04/12 06:27:39;;;;;;;3.00;2.30;;;4.70;76.10;;;;;;5087695;28;20036;-70
2021/04/12 06:30:26;;;;;;;2.28;1.80;;;4.90;76.00;;;;;;5088890;28;20107;-71
2021/04/12 06:33:15;;;;;;;3.60;1.92;;;4.90;75.90;;;;;;5091506;28;20479;-70
2021/04/12 06:36:07;;;;;;;2.53;1.95;;;5.00;75.60;;;;;;5089037;28;20111;-71
2021/04/12 06:38:36;;;;;;;3.20;1.80;;;5.10;75.50;;;;;;5075425;28;20067;-70
2021/04/12 06:41:14;;;;;;;3.65;2.05;;;5.20;75.50;;;;;;5074910;28;20119;-70
2021/04/12 06:43:49;;;;;;;3.72;1.90;;;5.30;75.30;;;;;;5077462;28;20036;-72
2021/04/12 06:46:39;;;;;;;2.17;1.67;;;5.30;75.10;;;;;;5075269;28;20037;-70
2021/04/12 06:49:41;;;;;;;2.22;1.58;;;5.40;75.00;;;;;;5075161;28;20046;-70
2021/04/12 06:52:38;;;;;;;2.88;1.50;;;5.30;75.00;;;;;;5073967;28;20567;-69
2021/04/12 06:55:25;;;;;;;6.00;1.75;;;5.30;75.00;;;;;;5073519;28;20117;-69
2021/04/12 06:58:31;;;;;;;2.95;1.92;;;5.20;75.00;;;;;;5074738;28;20034;-70
2021/04/12 07:01:15;;;;;;;2.80;1.40;;;5.20;75.00;;;;;;5073517;28;20033;-70
2021/04/12 07:04:13;;;;;;;5.68;2.13;;;5.10;75.10;;;;;;5073464;28;20131;-71
2021/04/12 07:07:09;;;;;;;2.17;1.40;;;5.10;75.30;;;;;;5074719;28;20044;-71
2021/04/12 07:09:57;;;;;;;2.15;1.60;;;5.10;75.30;;;;;;5074602;28;20032;-70
2021/04/12 07:12:43;;;;;;;3.30;1.52;;;5.20;75.30;;;;;;5073330;28;20028;-70
2021/04/12 07:15:27;;;;;;;3.40;1.75;;;5.20;75.30;;;;;;5074539;28;20436;-70
2021/04/12 07:21:45;;;;;;;3.25;1.23;;;5.20;75.20;;;;;;5075326;28;20028;-69
2021/04/12 07:24:40;;;;;;;2.33;1.25;;;5.20;75.20;;;;;;5074793;28;20032;-70
2021/04/12 07:27:43;;;;;;;3.28;1.50;;;5.30;75.20;;;;;;5072791;28;20040;-69
2021/04/12 07:30:47;;;;;;;2.92;1.50;;;5.30;75.20;;;;;;5062766;28;20040;-69
2021/04/12 07:33:27;;;;;;;1.70;1.13;;;5.30;75.10;;;;;;5073056;28;20094;-70
2021/04/12 07:36:11;;;;;;;2.47;1.30;;;5.40;75.10;;;;;;5074678;28;20111;-69
2021/04/12 07:38:55;;;;;;;2.92;1.30;;;5.40;75.10;;;;;;5073035;28;20388;-69
2021/04/12 07:41:52;;;;;;;2.28;1.33;;;5.40;75.00;;;;;;5074165;28;20029;-70
2021/04/12 07:44:36;;;;;;;2.75;1.40;;;5.50;75.00;;;;;;5072759;28;20032;-70
2021/04/12 07:47:33;;;;;;;2.38;1.23;;;5.50;74.90;;;;;;5072770;28;20036;-70
2021/04/12 07:50:32;;;;;;;3.72;1.50;;;5.60;74.90;;;;;;5073082;28;20373;-70
2021/04/12 07:53:52;;;;;;;1.70;1.23;;;5.70;74.90;;;;;;5072833;28;20047;-69
2021/04/12 07:56:29;;;;;;;1.50;1.15;;;5.70;74.70;;;;;;5072559;28;20506;-68
2021/04/12 07:59:07;;;;;;;2.17;1.02;;;5.80;74.50;;;;;;5072475;28;20036;-69
2021/04/12 08:02:14;;;;;;;2.08;1.10;;;5.90;74.40;;;;;;5072472;28;20032;-69
2021/04/12 08:04:52;;;;;;;2.95;1.30;;;6.10;74.20;;;;;;5054860;28;20032;-71
2021/04/12 08:07:54;;;;;;;3.63;1.45;;;6.20;74.00;;;;;;5054562;28;20424;-69
2021/04/12 08:10:34;;;;;;;2.22;1.30;;;6.40;73.50;;;;;;5071241;28;20025;-69
2021/04/12 08:13:34;;;;;;;1.88;1.15;;;6.50;72.80;;;;;;5071586;28;20048;-69
2021/04/12 08:16:16;;;;;;;3.88;1.50;;;6.60;72.50;;;;;;5054348;28;20483;-69
2021/04/12 08:18:47;;;;;;;3.67;1.70;;;6.70;72.10;;;;;;5054423;28;20090;-70
2021/04/12 08:21:30;;;;;;;3.22;1.35;;;6.80;71.80;;;;;;5070960;28;20111;-70
2021/04/12 08:24:45;;;;;;;3.72;1.40;;;6.90;71.40;;;;;;5054316;28;20062;-69
2021/04/12 08:27:32;;;;;;;2.83;1.30;;;7.00;70.40;;;;;;5070713;28;20165;-70
2021/04/12 08:30:34;;;;;;;3.47;1.10;;;7.00;69.60;;;;;;5071170;28;20037;-69
2021/04/12 08:33:33;;;;;;;2.67;1.10;;;7.00;69.80;;;;;;5070941;28;20049;-69
2021/04/12 08:36:17;;;;;;;3.88;1.10;;;7.10;69.60;;;;;;5054006;28;20032;-69
2021/04/12 08:38:46;;;;;;;5.22;1.90;;;7.20;69.40;;;;;;5061587;28;20036;-69
2021/04/12 08:41:39;;;;;;;3.88;1.10;;;7.30;68.40;;;;;;5073209;28;20060;-70
2021/04/12 08:44:32;;;;;;;6.05;1.08;;;7.40;68.40;;;;;;5071409;28;20480;-69
2021/04/12 08:46:58;;;;;;;2.28;0.80;;;7.40;67.80;;;;;;5072645;28;20033;-71
2021/04/12 08:49:59;;;;;;;4.30;1.13;;;7.50;66.10;;;;;;5071472;28;20075;-70
2021/04/12 08:52:49;;;;;;;3.60;1.30;;;7.60;66.70;;;;;;5071723;28;20383;-70
2021/04/12 08:55:48;;;;;;;3.40;1.27;;;7.70;65.10;;;;;;5072942;28;20035;-69
2021/04/12 08:58:47;;;;;;;2.60;0.80;;;7.70;64.50;;;;;;5072991;28;20067;-70
2021/04/12 09:01:27;;;;;;;0.90;0.80;;;7.60;64.20;;;;;;5071523;28;20024;-69
2021/04/12 09:04:14;;;;;;;2.45;1.00;;;7.60;63.70;;;;;;5071494;28;20047;-69
2021/04/12 09:07:01;;;;;;;1.70;1.20;;;7.60;64.20;;;;;;5071495;28;20403;-69
2021/04/12 09:10:04;;;;;;;2.45;1.10;;;7.70;63.80;;;;;;5072940;28;20467;-69
2021/04/12 09:12:57;;;;;;;2.30;1.50;;;7.60;62.10;;;;;;5071436;28;20039;-69
2021/04/12 09:15:42;;;;;;;1.85;1.00;;;7.50;62.40;;;;;;5071503;28;20028;-69
2021/04/12 09:18:29;;;;;;;2.65;0.98;;;7.50;61.90;;;;;;5073324;28;20039;-69
2021/04/12 09:21:32;;;;;;;3.08;1.10;;;7.50;61.90;;;;;;5072819;28;20101;-69
2021/04/12 09:24:09;;;;;;;2.58;1.10;;;7.60;62.20;;;;;;5071337;28;20037;-69
2021/04/12 09:27:21;;;;;;;3.53;1.10;;;7.70;62.20;;;;;;5071261;28;20416;-68
2021/04/12 09:30:22;;;;;;;1.75;1.00;;;7.80;62.40;;;;;;5072867;28;20418;-69
2021/04/12 09:33:01;;;;;;;2.63;1.10;;;7.80;62.90;;;;;;5071765;28;20082;-70
2021/04/12 09:35:39;;;;;;;3.65;1.27;;;7.90;62.50;;;;;;5071503;28;20588;-70
2021/04/12 09:38:05;;;;;;;1.63;1.20;;;8.00;62.80;;;;;;5071730;28;20109;-69
2021/04/12 09:40:41;;;;;;;2.58;1.42;;;8.00;62.40;;;;;;5071449;28;20032;-69
2021/04/12 09:43:24;;;;;;;2.67;1.27;;;8.00;62.10;;;;;;5072814;28;20036;-69
2021/04/12 09:46:11;;;;;;;4.00;1.30;;;8.00;62.00;;;;;;5070862;28;20035;-69
2021/04/12 09:48:56;;;;;;;2.15;1.30;;;7.90;62.20;;;;;;5070830;28;20037;-70
2021/04/12 09:51:41;;;;;;;1.60;1.23;;;7.80;62.90;;;;;;5070748;28;20077;-70
2021/04/12 09:54:57;;;;;;;3.10;1.77;;;7.90;63.00;;;;;;5072334;28;20032;-69
2021/04/12 09:58:00;;;;;;;4.55;1.70;;;7.80;63.20;;;;;;5071328;28;20041;-69
2021/04/12 10:00:42;;;;;;;2.10;1.50;;;7.80;63.90;;;;;;5070787;28;20460;-68
2021/04/12 10:03:33;;;;;;;3.03;2.00;;;7.80;63.80;;;;;;5070667;28;20543;-69
2021/04/12 10:06:20;;;;;;;3.22;1.83;;;7.80;63.80;;;;;;5070444;28;20074;-70
2021/04/12 10:09:10;;;;;;;5.30;1.98;;;7.80;64.00;;;;;;5072184;28;20033;-70
2021/04/12 10:11:48;;;;;;;5.35;2.20;;;7.90;63.40;;;;;;5070672;28;20480;-70
2021/04/12 10:14:28;;;;;;;2.95;2.28;;;7.90;63.40;;;;;;5074569;28;20040;-71
2021/04/12 10:17:07;;;;;;;2.78;2.20;;;7.90;63.60;;;;;;5074443;28;20068;-71
2021/04/12 10:19:48;;;;;;;4.32;2.22;;;7.80;63.90;;;;;;5074230;28;20123;-70
2021/04/12 10:22:17;;;;;;;2.63;1.65;;;7.80;64.30;;;;;;5074294;28;20132;-72
2021/04/12 10:25:00;;;;;;;4.15;1.92;;;7.80;63.60;;;;;;5075540;28;20025;-70
2021/04/12 10:27:44;;;;;;;6.28;1.80;;;8.00;63.60;;;;;;5075227;28;20053;-71
2021/04/12 10:30:19;;;;;;;2.25;1.52;;;8.00;63.30;;;;;;5075719;28;20024;-71
2021/04/12 10:32:50;;;;;;;2.63;1.40;;;8.10;63.30;;;;;;5075889;28;20029;-71
2021/04/12 10:35:21;;;;;;;2.00;1.48;;;8.30;63.20;;;;;;5074207;28;20024;-72
2021/04/12 10:37:56;;;;;;;2.20;1.10;;;8.30;62.50;;;;;;5074071;28;20379;-70
2021/04/12 10:40:38;;;;;;;0.60;0.60;;;8.10;61.90;;;;;;5075295;28;20448;-70
2021/04/12 10:43:19;;;;;;;0.73;0.73;;;7.80;62.60;;;;;;5074748;28;20043;-68
2021/04/12 10:46:06;;;;;;;0.73;0.63;;;7.60;63.30;;;;;;5074821;28;20048;-68
2021/04/12 10:48:43;;;;;;;0.80;0.70;;;7.40;63.40;;;;;;5075662;28;20379;-68
2021/04/12 10:51:24;;;;;;;1.15;0.80;;;7.30;63.80;;;;;;5074943;28;20487;-70
2021/04/12 10:54:14;;;;;;;2.45;0.70;;;7.30;64.10;;;;;;5073816;28;20439;-70
2021/04/12 10:56:59;;;;;;;0.90;0.70;;;7.20;64.10;;;;;;5073828;28;20029;-70
2021/04/12 10:59:52;;;;;;;1.00;0.85;;;7.30;64.60;;;;;;5075002;28;20475;-70
2021/04/12 11:02:52;;;;;;;1.63;0.87;;;7.40;64.80;;;;;;5074856;28;20040;-69
2021/04/12 11:05:21;;;;;;;2.08;0.70;;;7.50;64.80;;;;;;5074655;28;20036;-69
2021/04/12 11:08:02;;;;;;;1.15;0.77;;;7.60;64.50;;;;;;5074689;28;20035;-70
2021/04/12 11:10:42;;;;;;;2.83;1.00;;;7.60;64.10;;;;;;5074737;28;20043;-69
2021/04/12 11:13:13;;;;;;;2.00;0.65;;;7.60;64.20;;;;;;5073344;28;20032;-69
2021/04/12 11:15:58;;;;;;;0.77;0.60;;;7.70;63.80;;;;;;5073258;28;20028;-70
2021/04/12 11:18:42;;;;;;;1.45;0.90;;;7.60;63.60;;;;;;5074448;28;20059;-69
2021/04/12 11:21:30;;;;;;;1.05;0.95;;;7.70;64.00;;;;;;5073405;28;20506;-70
2021/04/12 11:24:17;;;;;;;0.75;0.68;;;7.70;63.20;;;;;;5072838;28;20435;-70
2021/04/12 11:27:20;;;;;;;2.75;0.82;;;7.70;63.50;;;;;;5073194;28;20055;-70
2021/04/12 11:30:03;;;;;;;1.38;0.77;;;7.90;63.20;;;;;;5074351;28;20392;-70
2021/04/12 11:32:53;;;;;;;1.50;0.80;;;8.20;62.30;;;;;;5073379;28;20422;-70
2021/04/12 11:36:02;;;;;;;1.42;0.80;;;8.40;60.50;;;;;;5072798;28;20384;-70
2021/04/12 11:38:34;;;;;;;0.70;0.70;;;8.50;60.00;;;;;;5072527;28;20040;-70
2021/04/12 11:41:15;;;;;;;1.83;1.00;;;8.60;59.00;;;;;;5074425;28;20025;-70
2021/04/12 11:43:49;;;;;;;1.67;0.80;;;8.70;59.20;;;;;;5073022;28;20032;-70
2021/04/12 11:46:37;;;;;;;1.23;0.80;;;8.70;58.60;;;;;;5072831;28;20032;-71
2021/04/12 11:49:17;;;;;;;1.10;1.00;;;8.60;58.30;;;;;;5073866;28;20333;-70
2021/04/12 11:52:17;;;;;;;1.10;0.82;;;8.60;59.00;;;;;;5072587;28;20059;-69
2021/04/12 11:54:55;;;;;;;0.80;0.80;;;8.60;59.20;;;;;;5073984;28;20083;-70
2021/04/12 11:57:54;;;;;;;1.23;0.90;;;8.60;59.50;;;;;;5073932;28;20499;-71
2021/04/12 12:00:39;;;;;;;1.20;1.00;;;8.90;59.60;;;;;;5073808;28;20480;-70
2021/04/12 12:03:31;;;;;;;1.42;1.10;;;9.10;59.30;;;;;;5072392;28;20090;-71
2021/04/12 12:06:38;;;;;;;1.70;1.15;;;9.20;59.00;;;;;;5073606;28;20032;-71
2021/04/12 12:09:31;;;;;;;1.02;0.88;;;9.30;59.00;;;;;;5054739;28;20036;-70
2021/04/12 12:12:07;;;;;;;2.67;1.10;;;9.30;58.40;;;;;;5054953;28;20043;-70
2021/04/12 12:15:16;;;;;;;0.70;0.70;;;9.20;58.60;;;;;;5071488;28;20147;-70
2021/04/12 12:17:45;;;;;;;1.75;1.00;;;9.30;58.90;;;;;;5054584;28;20024;-70
2021/04/12 12:20:18;;;;;;;1.23;0.98;;;9.20;57.20;;;;;;5071261;28;20128;-71
2021/04/12 12:22:50;;;;;;;1.88;0.68;;;9.10;56.10;;;;;;5071339;28;20031;-70
2021/04/12 12:25:33;;;;;;;1.05;0.82;;;9.00;56.70;;;;;;5054227;28;20033;-70
2021/04/12 12:28:08;;;;;;;3.30;0.90;;;9.00;56.90;;;;;;5070998;28;20389;-70
2021/04/12 12:30:58;;;;;;;3.47;0.90;;;9.00;56.20;;;;;;5054303;28;20035;-70
2021/04/12 12:33:38;;;;;;;0.95;0.80;;;9.00;56.10;;;;;;5071188;28;20032;-70
2021/04/12 12:36:18;;;;;;;1.85;0.90;;;8.90;56.00;;;;;;5054046;28;20144;-71
2021/04/12 12:39:00;;;;;;;1.98;0.93;;;8.80;56.60;;;;;;5071150;28;20601;-70
2021/04/12 12:41:30;;;;;;;1.75;1.00;;;8.80;56.80;;;;;;5071010;28;20028;-70
2021/04/12 12:44:04;;;;;;;1.50;0.80;;;8.70;57.60;;;;;;5056406;28;20106;-70
2021/04/12 12:46:33;;;;;;;1.98;0.77;;;8.50;58.60;;;;;;5071468;28;20028;-70
2021/04/12 12:49:22;;;;;;;1.88;1.10;;;8.40;59.40;;;;;;5071533;28;20029;-70
2021/04/12 12:51:59;;;;;;;1.85;1.02;;;8.10;61.10;;;;;;5071566;28;20077;-71
2021/04/12 12:54:38;;;;;;;1.80;0.90;;;7.60;62.40;;;;;;5072742;28;20432;-71
2021/04/12 12:57:11;;;;;;;1.10;0.90;;;7.10;64.90;;;;;;5071830;28;20059;-71
2021/04/12 12:59:43;;;;;;;1.15;1.05;;;6.60;65.60;;;;;;5072724;28;20033;-71
2021/04/12 13:02:23;;;;;;;2.75;0.93;;;6.40;66.40;;;;;;5071385;28;20035;-70
2021/04/12 13:05:09;;;;;;;1.70;1.00;;;6.30;67.20;;;;;;5071504;28;20036;-70
2021/04/12 13:07:36;;;;;;;1.17;0.85;;;6.20;67.90;;;;;;5072810;28;20024;-70
2021/04/12 13:10:16;;;;;;;1.73;1.23;;;6.20;68.00;;;;;;5072624;28;20091;-71
2021/04/12 13:12:46;;;;;;;1.73;1.00;;;6.20;68.30;;;;;;5071210;28;20027;-70
2021/04/12 13:15:24;;;;;;;2.15;0.95;;;6.30;68.50;;;;;;5071152;28;20024;-71
2021/04/12 13:17:50;;;;;;;1.27;0.90;;;6.40;68.50;;;;;;5072522;28;20036;-72
2021/04/12 13:20:19;;;;;;;0.90;0.73;;;6.60;68.60;;;;;;5071194;28;20432;-70
2021/04/12 13:22:48;;;;;;;1.73;1.20;;;6.80;68.60;;;;;;5072915;28;20035;-71
2021/04/12 13:25:32;;;;;;;1.30;0.93;;;7.20;68.40;;;;;;5071068;28;20143;-70
2021/04/12 13:28:30;;;;;;;1.95;1.00;;;7.50;68.00;;;;;;5071153;28;20109;-70
2021/04/12 13:31:08;;;;;;;1.92;0.90;;;7.70;65.90;;;;;;5071314;28;20020;-70
2021/04/12 13:33:42;;;;;;;2.22;0.90;;;7.60;65.00;;;;;;5072455;28;20029;-71
2021/04/12 13:36:15;;;;;;;2.22;0.93;;;7.60;64.90;;;;;;5071402;28;20085;-70
2021/04/12 13:38:42;;;;;;;3.67;1.23;;;7.50;64.70;;;;;;5072554;28;20037;-70
2021/04/12 13:41:20;;;;;;;2.80;0.85;;;7.50;64.40;;;;;;5072625;28;20483;-71
2021/04/12 13:43:49;;;;;;;2.75;0.95;;;7.40;64.40;;;;;;5071090;28;20044;-70
2021/04/12 13:46:28;;;;;;;0.88;0.82;;;7.30;64.40;;;;;;5070849;28;20099;-70
2021/04/12 13:49:17;;;;;;;1.60;0.93;;;7.30;64.50;;;;;;5075913;28;20472;-70
2021/04/12 13:51:46;;;;;;;1.13;0.82;;;7.30;64.20;;;;;;5076254;28;20067;-70
2021/04/12 13:54:22;;;;;;;1.45;0.85;;;7.20;64.10;;;;;;5076355;28;20480;-70
2021/04/12 13:56:57;;;;;;;2.47;1.00;;;7.30;63.70;;;;;;5076307;28;20477;-70
2021/04/12 13:59:31;;;;;;;2.78;1.00;;;7.30;63.30;;;;;;5074896;28;20028;-69
2021/04/12 14:01:58;;;;;;;1.35;0.90;;;7.30;63.40;;;;;;5076146;28;20093;-71
2021/04/12 14:04:36;;;;;;;1.52;1.10;;;7.40;63.80;;;;;;5076402;28;20036;-70
2021/04/12 14:07:11;;;;;;;1.77;0.90;;;7.50;63.30;;;;;;5074545;28;20044;-70
2021/04/12 14:10:01;;;;;;;2.47;0.90;;;7.60;63.30;;;;;;5075966;28;20103;-70
2021/04/12 14:12:53;;;;;;;4.55;1.50;;;7.80;63.20;;;;;;5075929;28;20067;-70
2021/04/12 14:15:45;;;;;;;3.20;1.85;;;8.10;62.30;;;;;;5075478;28;20130;-70
2021/04/12 14:18:22;;;;;;;2.67;1.23;;;8.30;62.40;;;;;;5074787;28;20036;-70
2021/04/12 14:20:48;;;;;;;2.03;1.10;;;8.50;61.90;;;;;;5074412;28;20455;-70
2021/04/12 14:23:20;;;;;;;1.40;0.90;;;8.70;61.00;;;;;;5074327;28;20483;-70
2021/04/12 14:26:02;;;;;;;2.03;1.20;;;8.90;61.30;;;;;;5074342;28;20040;-70
2021/04/12 14:28:31;;;;;;;1.42;1.10;;;9.30;61.50;;;;;;5074110;28;20028;-71
2021/04/12 14:31:08;;;;;;;1.23;1.13;;;9.50;60.10;;;;;;5074344;28;20020;-70
2021/04/12 14:33:38;;;;;;;1.45;1.00;;;9.70;59.70;;;;;;5074095;28;20483;-70
2021/04/12 14:36:15;;;;;;;2.10;1.02;;;10.00;59.50;;;;;;5075479;28;20119;-70
2021/04/12 14:38:44;;;;;;;1.38;0.90;;;10.30;59.20;;;;;;5075477;28;20031;-70